Airfield :







YOU CAN JOIN US ON...

 
LOGIN :

Register | Disclaimer

   EN    FR    IT 

 









Legend :    VFR   Marginal VFR   IFR   Intensive IFR   Very Intensive IFR
Visi :
Ceiling :
>= 8 km
>= 3000ft
5 to 8 km
1000 to 3000 ft
1500m to 5 km
500 to 1000 ft
800 to 1500m
200 to 500 ft
< 800m
< 200 ft
Symbols :   Thunderstorms  Fog  Heavy snow  Heavy precipitations  Wind > 20 kt






- Airport Elevation : 1074 ft


KHIE - Mount Washington Regional

CURRENT METAR :
  • 102052Z AUTO 22006KT 10SM BKN026 BKN033 OVC046 07/06 A2968 RMK AO2 RAE51 SLP056 P0002 60014 T00720056 51018

EXPIRED METARs :
  • 101952Z AUTO 23005KT 10SM -RA FEW012 BKN046 OVC070 08/06 A2964 RMK AO2 SLP043 P0005 T00780061
  • 101945Z AUTO 22005KT 6SM -RA BR SCT010 BKN044 OVC070 08/06 A2964 RMK AO2 P0005 T00780061
  • 101918Z AUTO 25007KT 4SM RA BR FEW013 BKN029 OVC037 08/07 A2965 RMK AO2 P0003 T00780067
  • 101852Z AUTO 24004KT 8SM -RA SCT009 BKN046 OVC060 08/07 A2963 RMK AO2 SLP037 P0007 T00830067
  • 101811Z AUTO 27010G16KT 3SM RA BR FEW014 BKN034 OVC049 08/07 A2963 RMK AO2 P0004 T00830067

TAF KHIE
Valid from the 10 at 18:00 until the 11 at 18:00 UTC


101722Z 1018/1118 29006KT P6SM -SHRA OVC025
FM102200 27006KT P6SM SCT025 OVC060
FM110600 31005KT P6SM OVC025



MET'MAP, your aeronautical weather chart ! - Copyright ORBIFLY December 2007 - Disclaimer

ORBIFLY MET'MAP TEAM :

Programming & Development : Alexandra Zaïnal
Concept & original design : Baudouin d'Aumeries
Assistance for programming : Marc-Olivier Méhu
Technical & hardware support : Manuel Goepfert

Contact : metmap@orbifly.com




SOURCES & CREDITS :

   NOAA